createdAt,value
2017-07-21T00:02:19.624Z,13.70
2017-07-21T00:04:47.977Z,13.60
2017-07-21T00:07:17.346Z,13.60
2017-07-21T00:09:45.696Z,14.90
2017-07-21T00:12:14.081Z,14.70
2017-07-21T00:14:42.716Z,16.20
2017-07-21T00:17:11.062Z,14.67
2017-07-21T00:19:39.410Z,15.33
2017-07-21T00:22:08.274Z,14.87
2017-07-21T00:24:36.609Z,15.10
2017-07-21T00:27:05.734Z,14.90
2017-07-21T00:29:34.921Z,15.40
2017-07-21T00:32:03.278Z,16.43
2017-07-21T00:34:31.623Z,15.03
2017-07-21T00:37:00.390Z,15.33
2017-07-21T00:39:28.765Z,16.37
2017-07-21T00:41:57.148Z,15.60
2017-07-21T00:44:25.803Z,15.17
2017-07-21T00:46:54.178Z,14.97
2017-07-21T00:49:23.299Z,14.50
2017-07-21T00:51:52.250Z,14.83
2017-07-21T00:54:20.617Z,13.80
2017-07-21T00:56:48.968Z,13.03
2017-07-21T00:59:17.738Z,13.63
2017-07-21T01:01:46.241Z,13.70
2017-07-21T01:04:14.576Z,13.77
2017-07-21T01:06:44.002Z,13.80
2017-07-21T01:09:12.348Z,13.30
2017-07-21T01:11:40.702Z,13.10
2017-07-21T01:14:09.547Z,14.00
2017-07-21T01:16:38.100Z,13.50
2017-07-21T01:19:06.433Z,12.83
2017-07-21T01:21:35.098Z,12.50
2017-07-21T01:24:03.440Z,13.73
2017-07-21T01:26:31.803Z,12.40
2017-07-21T01:29:00.545Z,12.40
2017-07-21T01:31:28.905Z,13.13
2017-07-21T01:33:57.285Z,12.10
2017-07-21T01:36:26.069Z,12.23
2017-07-21T01:38:55.190Z,12.07
2017-07-21T01:41:23.551Z,13.63
2017-07-21T01:43:52.190Z,12.47
2017-07-21T01:46:20.529Z,14.50
2017-07-21T01:48:48.888Z,14.70
2017-07-21T01:51:18.525Z,14.70
2017-07-21T01:53:46.884Z,14.23
2017-07-21T01:56:16.399Z,13.90
2017-07-21T01:58:45.385Z,13.57
2017-07-21T02:01:13.736Z,12.50
2017-07-21T02:03:42.084Z,12.70
2017-07-21T02:06:10.808Z,13.37
2017-07-21T02:08:39.163Z,14.10
2017-07-21T02:11:07.520Z,13.00
2017-07-21T02:13:36.280Z,12.60
2017-07-21T02:16:04.629Z,11.50
2017-07-21T02:18:32.930Z,12.37
2017-07-21T02:21:01.928Z,11.80
2017-07-21T02:23:30.293Z,13.20
2017-07-21T02:25:58.697Z,12.07
2017-07-21T02:28:27.595Z,11.20
2017-07-21T02:30:55.949Z,12.13
2017-07-21T02:33:25.064Z,12.10
2017-07-21T02:35:53.708Z,11.57
2017-07-21T02:38:22.076Z,10.93
2017-07-21T02:40:50.421Z,10.63
2017-07-21T02:43:19.707Z,11.43
2017-07-21T02:45:48.053Z,11.33
2017-07-21T02:48:17.175Z,10.80
2017-07-21T02:50:45.981Z,10.33
2017-07-21T02:53:14.318Z,9.93
2017-07-21T02:55:42.656Z,9.93
2017-07-21T02:58:13.062Z,10.60
2017-07-21T03:00:41.409Z,9.93
2017-07-21T03:03:09.763Z,10.43
2017-07-21T03:05:38.914Z,10.50
2017-07-21T03:08:07.255Z,9.90
2017-07-21T03:10:35.597Z,9.10
2017-07-21T03:13:04.266Z,10.20
2017-07-21T03:15:32.611Z,9.43
2017-07-21T03:18:00.951Z,8.63
2017-07-21T03:20:29.588Z,9.40
2017-07-21T03:23:28.419Z,9.10
2017-07-21T03:25:57.425Z,9.33
2017-07-21T03:28:25.754Z,8.90
2017-07-21T03:30:54.117Z,8.50
2017-07-21T03:33:23.552Z,9.33
2017-07-21T03:35:51.905Z,8.17
2017-07-21T03:38:20.999Z,10.40
2017-07-21T03:40:50.619Z,8.80
2017-07-21T03:43:18.975Z,8.43
2017-07-21T03:45:48.097Z,8.20
2017-07-21T03:48:16.782Z,8.47
2017-07-21T03:50:45.127Z,7.67
2017-07-21T03:53:13.475Z,8.27
2017-07-21T03:55:42.346Z,7.27
2017-07-21T03:58:10.684Z,7.20
2017-07-21T04:00:39.023Z,7.57
2017-07-21T04:03:07.701Z,7.80
2017-07-21T04:05:36.034Z,7.27
2017-07-21T04:08:04.371Z,7.73
2017-07-21T04:10:33.425Z,7.60
2017-07-21T04:13:01.760Z,7.40
2017-07-21T04:15:30.094Z,7.77
2017-07-21T04:17:58.706Z,7.20
2017-07-21T04:20:27.049Z,6.00
2017-07-21T04:22:55.377Z,6.50
2017-07-21T04:25:24.321Z,6.30
2017-07-21T04:27:52.683Z,6.90
2017-07-21T04:30:21.796Z,7.20
2017-07-21T04:32:50.775Z,7.10
2017-07-21T04:35:19.108Z,8.17
2017-07-21T04:37:47.445Z,8.50
2017-07-21T04:40:16.250Z,6.90
2017-07-21T04:42:44.644Z,8.50
2017-07-21T04:45:12.981Z,7.20
2017-07-21T04:47:41.659Z,7.40
2017-07-21T04:50:10.042Z,6.57
2017-07-21T04:52:39.149Z,8.00
2017-07-21T04:55:07.881Z,6.80
2017-07-21T04:57:36.240Z,7.60
2017-07-21T05:00:04.582Z,7.10
2017-07-21T05:02:33.374Z,7.00
2017-07-21T05:05:01.715Z,6.00
2017-07-21T05:07:30.064Z,6.40
2017-07-21T05:09:58.684Z,6.33
2017-07-21T05:12:27.028Z,6.47
2017-07-21T05:14:55.363Z,6.07
2017-07-21T05:17:24.272Z,5.70
2017-07-21T05:19:52.619Z,5.60
2017-07-21T05:22:20.972Z,5.53
2017-07-21T05:24:49.732Z,5.50
2017-07-21T05:27:18.066Z,6.10
2017-07-21T05:29:46.406Z,5.47
2017-07-21T05:32:15.050Z,5.43
2017-07-21T05:34:43.430Z,5.17
2017-07-21T05:37:11.765Z,4.37
2017-07-21T05:39:40.789Z,5.10
2017-07-21T05:42:09.152Z,4.47
2017-07-21T05:44:37.491Z,3.87
2017-07-21T05:47:06.277Z,5.73
2017-07-21T05:49:34.628Z,5.93
2017-07-21T05:52:02.965Z,5.50
2017-07-21T05:54:31.638Z,5.30
2017-07-21T05:56:59.999Z,4.40
2017-07-21T05:59:28.339Z,5.23
2017-07-21T06:01:57.363Z,4.67
2017-07-21T06:04:25.710Z,5.60
2017-07-21T06:06:54.070Z,5.00
2017-07-21T06:09:22.703Z,4.50
2017-07-21T06:11:51.053Z,4.60
2017-07-21T06:14:19.426Z,5.03
2017-07-21T06:16:48.107Z,4.30
2017-07-21T06:19:16.456Z,4.13
2017-07-21T06:21:44.814Z,3.80
2017-07-21T06:24:14.119Z,4.80
2017-07-21T06:26:42.483Z,5.17
2017-07-21T06:29:10.836Z,4.80
2017-07-21T06:31:39.764Z,4.90
2017-07-21T06:34:08.106Z,5.00
2017-07-21T06:36:36.448Z,4.47
2017-07-21T06:39:05.118Z,5.00
2017-07-21T06:41:33.466Z,4.40
2017-07-21T06:44:01.815Z,5.00
2017-07-21T06:46:30.648Z,4.30
2017-07-21T06:48:59.006Z,4.47
2017-07-21T06:51:27.353Z,4.30
2017-07-21T06:53:55.972Z,4.80
2017-07-21T06:56:24.327Z,6.30
2017-07-21T06:58:52.761Z,4.13
2017-07-21T07:01:21.537Z,4.30
2017-07-21T07:03:50.285Z,3.93
2017-07-21T07:06:18.618Z,3.97
2017-07-21T07:08:47.391Z,3.53
2017-07-21T07:11:15.763Z,3.20
2017-07-21T07:13:44.111Z,3.70
2017-07-21T07:16:13.066Z,2.83
2017-07-21T07:18:41.437Z,3.33
2017-07-21T07:21:09.771Z,3.27
2017-07-21T07:23:38.658Z,3.00
2017-07-21T07:26:06.977Z,3.20
2017-07-21T07:28:35.338Z,2.60
2017-07-21T07:31:04.347Z,3.37
2017-07-21T07:33:32.689Z,3.13
2017-07-21T07:36:01.095Z,2.80
2017-07-21T07:38:29.712Z,2.70
2017-07-21T07:40:58.046Z,3.67
2017-07-21T07:43:26.378Z,3.07
2017-07-21T07:45:55.218Z,2.53
2017-07-21T07:48:23.592Z,2.40
2017-07-21T07:50:52.703Z,2.73
2017-07-21T07:53:21.504Z,2.93
2017-07-21T07:55:49.883Z,2.47
2017-07-21T07:58:18.212Z,2.30
2017-07-21T08:00:46.945Z,2.93
2017-07-21T08:03:15.305Z,2.30
2017-07-21T08:05:43.669Z,2.40
2017-07-21T08:08:12.338Z,2.13
2017-07-21T08:10:40.734Z,7.93
2017-07-21T08:13:09.110Z,2.50
2017-07-21T08:15:37.970Z,3.00
2017-07-21T08:18:06.322Z,2.27
2017-07-21T08:20:34.641Z,2.20
2017-07-21T08:23:03.291Z,2.27
2017-07-21T08:25:31.647Z,2.47
2017-07-21T08:28:00.757Z,2.30
2017-07-21T08:30:29.653Z,2.53
2017-07-21T08:32:57.983Z,2.70
2017-07-21T08:35:26.332Z,2.13
2017-07-21T08:37:55.085Z,2.50
2017-07-21T08:40:24.202Z,3.30
2017-07-21T08:42:52.559Z,2.20
2017-07-21T08:45:21.462Z,2.90
2017-07-21T08:47:49.808Z,3.10
2017-07-21T08:50:18.152Z,3.73
2017-07-21T08:52:46.903Z,2.90
2017-07-21T08:55:15.254Z,3.70
2017-07-21T08:57:44.371Z,2.63
2017-07-21T09:00:13.816Z,2.33
2017-07-21T09:02:42.161Z,3.13
2017-07-21T09:05:10.514Z,2.60
2017-07-21T09:07:39.443Z,2.30
2017-07-21T09:10:07.779Z,2.20
2017-07-21T09:12:36.123Z,2.33
2017-07-21T09:15:04.872Z,1.93
2017-07-21T09:17:33.205Z,2.37
2017-07-21T09:20:01.558Z,2.23
2017-07-21T09:22:30.547Z,2.57
2017-07-21T09:24:58.886Z,2.30
2017-07-21T09:27:28.133Z,1.90
2017-07-21T09:29:56.753Z,2.50
2017-07-21T09:32:25.145Z,2.40
2017-07-21T09:34:54.258Z,2.80
2017-07-21T09:37:23.232Z,2.43
2017-07-21T09:39:51.567Z,2.40
2017-07-21T09:42:19.921Z,2.60
2017-07-21T09:44:49.215Z,2.93
2017-07-21T09:47:17.546Z,3.40
2017-07-21T09:49:45.912Z,3.03
2017-07-21T09:52:14.677Z,2.00
2017-07-21T09:54:43.059Z,2.20
2017-07-21T09:57:11.393Z,2.80
2017-07-21T09:59:40.243Z,2.57
2017-07-21T10:02:08.603Z,3.37
2017-07-21T10:04:36.931Z,2.17
2017-07-21T10:07:06.013Z,2.40
2017-07-21T10:09:34.373Z,1.57
2017-07-21T10:12:02.733Z,2.20
2017-07-21T10:14:31.486Z,1.90
2017-07-21T10:16:59.813Z,1.73
2017-07-21T10:19:28.153Z,2.10
2017-07-21T10:21:57.540Z,2.47
2017-07-21T10:24:25.910Z,1.50
2017-07-21T10:26:54.271Z,2.40
2017-07-21T10:29:23.424Z,2.33
2017-07-21T10:31:51.762Z,3.03
2017-07-21T10:34:20.141Z,3.03
2017-07-21T10:36:48.804Z,3.83
2017-07-21T10:39:17.172Z,2.53
2017-07-21T10:41:45.548Z,2.37
2017-07-21T10:44:14.348Z,1.90
2017-07-21T10:46:42.713Z,2.40
2017-07-21T10:49:11.119Z,4.77
2017-07-21T10:51:40.383Z,1.80
2017-07-21T10:54:08.744Z,2.20
2017-07-21T10:56:37.884Z,2.20
2017-07-21T10:59:06.663Z,2.27
2017-07-21T11:01:35.067Z,2.00
2017-07-21T11:04:03.446Z,1.90
2017-07-21T11:06:32.093Z,2.10
2017-07-21T11:09:00.671Z,2.03
2017-07-21T11:11:29.019Z,2.17
2017-07-21T11:13:58.152Z,2.30
2017-07-21T11:16:26.498Z,1.80
2017-07-21T11:18:54.847Z,2.20
2017-07-21T11:21:23.476Z,1.73
2017-07-21T11:23:51.843Z,1.73
2017-07-21T11:26:20.208Z,2.30
2017-07-21T11:28:49.070Z,2.40
2017-07-21T11:31:17.407Z,2.00
2017-07-21T11:33:45.771Z,2.30
2017-07-21T11:36:14.930Z,1.90
2017-07-21T11:38:43.299Z,2.13
2017-07-21T11:41:11.625Z,2.60
2017-07-21T11:43:40.257Z,1.97
2017-07-21T11:46:08.596Z,1.67
2017-07-21T11:48:36.951Z,1.70
2017-07-21T11:51:05.599Z,2.47
2017-07-21T11:53:33.961Z,2.00
2017-07-21T11:56:02.310Z,2.60
2017-07-21T11:58:31.438Z,2.33
2017-07-21T12:00:59.807Z,1.60
2017-07-21T12:03:28.181Z,1.70
2017-07-21T12:05:56.828Z,1.93
2017-07-21T12:08:25.174Z,1.90
2017-07-21T12:10:53.531Z,1.80
2017-07-21T12:13:22.342Z,1.63
2017-07-21T12:15:50.677Z,1.90
2017-07-21T12:18:19.786Z,1.90
2017-07-21T12:20:49.660Z,2.47
2017-07-21T12:23:18.032Z,2.20
2017-07-21T12:25:46.377Z,2.20
2017-07-21T12:28:14.993Z,1.80
2017-07-21T12:30:43.368Z,1.80
2017-07-21T12:33:11.840Z,1.80
2017-07-21T12:35:40.491Z,2.20
2017-07-21T12:38:08.865Z,1.97
2017-07-21T12:40:38.013Z,1.93
2017-07-21T12:43:06.986Z,1.80
2017-07-21T12:45:35.355Z,1.93
2017-07-21T12:48:03.693Z,1.70
2017-07-21T12:50:32.349Z,1.90
2017-07-21T12:53:00.698Z,2.00
2017-07-21T12:55:29.062Z,2.07
2017-07-21T12:57:57.894Z,2.00
2017-07-21T13:00:26.239Z,2.57
2017-07-21T13:02:54.592Z,2.10
2017-07-21T13:05:23.527Z,1.80
2017-07-21T13:07:51.884Z,1.90
2017-07-21T13:10:20.250Z,1.60
2017-07-21T13:12:49.185Z,1.97
2017-07-21T13:15:17.527Z,2.63
2017-07-21T13:17:45.861Z,2.17
2017-07-21T13:20:14.637Z,1.60
2017-07-21T13:22:43.007Z,1.97
2017-07-21T13:25:11.338Z,1.30
2017-07-21T13:27:40.300Z,2.00
2017-07-21T13:30:08.697Z,2.20
2017-07-21T13:32:37.043Z,1.93
2017-07-21T13:35:05.671Z,1.93
2017-07-21T13:37:34.016Z,2.33
2017-07-21T13:40:02.367Z,1.87
2017-07-21T13:42:31.054Z,2.33
2017-07-21T13:44:59.415Z,2.20
2017-07-21T13:47:27.762Z,2.20
2017-07-21T13:49:56.557Z,2.33
2017-07-21T13:52:24.919Z,1.77
2017-07-21T13:54:53.263Z,1.83
2017-07-21T13:57:22.052Z,1.80
2017-07-21T13:59:50.378Z,1.83
2017-07-21T14:02:18.713Z,2.60
2017-07-21T14:04:47.336Z,1.90
2017-07-21T14:07:15.694Z,1.70
2017-07-21T14:09:44.094Z,2.10
2017-07-21T14:12:13.170Z,2.30
2017-07-21T14:14:41.567Z,2.10
2017-07-21T14:17:09.920Z,1.87
2017-07-21T14:19:38.803Z,2.07
2017-07-21T14:22:07.146Z,1.57
2017-07-21T14:24:35.615Z,1.90
2017-07-21T14:27:04.274Z,1.70
2017-07-21T14:29:32.620Z,2.80
2017-07-21T14:32:00.981Z,1.37
2017-07-21T14:34:29.759Z,2.00
2017-07-21T14:36:58.118Z,2.00
2017-07-21T14:39:26.457Z,1.80
2017-07-21T14:41:55.340Z,1.73
2017-07-21T14:44:23.696Z,1.60
2017-07-21T14:46:52.072Z,2.00
2017-07-21T14:49:21.000Z,2.07
2017-07-21T14:51:49.354Z,2.10
2017-07-21T14:54:17.715Z,3.20
2017-07-21T14:56:46.554Z,2.10
2017-07-21T14:59:14.915Z,1.93
2017-07-21T15:01:43.285Z,2.10
2017-07-21T15:04:11.974Z,2.07
2017-07-21T15:06:40.343Z,1.90
2017-07-21T15:09:08.702Z,2.00
2017-07-21T15:11:38.261Z,2.20
2017-07-21T15:14:06.755Z,2.00
2017-07-21T15:16:35.101Z,2.00
2017-07-21T15:19:03.978Z,1.80
2017-07-21T15:21:32.350Z,1.87
2017-07-21T15:24:00.721Z,1.83
2017-07-21T15:26:29.429Z,2.40
2017-07-21T15:28:57.793Z,2.07
2017-07-21T15:31:26.142Z,2.33
2017-07-21T15:33:54.764Z,1.97
2017-07-21T15:36:23.103Z,1.90
2017-07-21T15:38:51.456Z,2.47
2017-07-21T15:41:20.556Z,2.20
2017-07-21T15:43:48.940Z,2.20
2017-07-21T15:46:17.342Z,2.37
2017-07-21T15:48:45.993Z,2.40
2017-07-21T15:51:14.338Z,2.40
2017-07-21T15:53:43.446Z,2.13
2017-07-21T15:56:12.109Z,1.80
2017-07-21T15:58:40.457Z,2.50
2017-07-21T16:01:08.807Z,2.30
2017-07-21T16:03:38.048Z,2.17
2017-07-21T16:06:06.378Z,2.13
2017-07-21T16:08:34.733Z,2.47
2017-07-21T16:11:03.729Z,2.20
2017-07-21T16:13:32.088Z,2.63
2017-07-21T16:16:00.463Z,2.63
2017-07-21T16:18:29.396Z,2.53
2017-07-21T16:20:57.769Z,2.97
2017-07-21T16:23:26.088Z,2.17
2017-07-21T16:25:55.255Z,2.53
2017-07-21T16:28:23.646Z,2.17
2017-07-21T16:30:52.010Z,2.00
2017-07-21T16:33:20.904Z,2.10
2017-07-21T16:35:49.246Z,2.40
2017-07-21T16:38:17.625Z,2.47
2017-07-21T16:40:46.255Z,2.80
2017-07-21T16:43:14.601Z,2.53
2017-07-21T16:45:42.936Z,2.50
2017-07-21T16:48:11.986Z,1.97
2017-07-21T16:50:40.363Z,2.10
2017-07-21T16:53:08.690Z,2.37
2017-07-21T16:55:37.461Z,2.47
2017-07-21T16:58:05.817Z,2.20
2017-07-21T17:00:34.205Z,2.40
2017-07-21T17:03:02.986Z,2.00
2017-07-21T17:05:31.351Z,2.53
2017-07-21T17:07:59.718Z,2.73
2017-07-21T17:10:29.305Z,2.10
2017-07-21T17:12:57.662Z,2.30
2017-07-21T17:15:26.016Z,2.77
2017-07-21T17:17:54.643Z,2.60
2017-07-21T17:20:22.977Z,2.27
2017-07-21T17:22:51.322Z,2.47
2017-07-21T17:25:20.047Z,2.23
2017-07-21T17:27:48.454Z,2.10
2017-07-21T17:30:16.839Z,2.40
2017-07-21T17:32:45.984Z,3.57
2017-07-21T17:35:14.363Z,2.27
2017-07-21T17:37:42.726Z,2.40
2017-07-21T17:40:11.378Z,2.80
2017-07-21T17:42:39.727Z,2.50
2017-07-21T17:45:08.069Z,2.83
2017-07-21T17:47:36.740Z,2.40
2017-07-21T17:50:05.110Z,2.40
2017-07-21T17:52:33.450Z,2.23
2017-07-21T17:55:02.209Z,2.20
2017-07-21T17:57:30.559Z,2.13
2017-07-21T17:59:58.906Z,2.77
2017-07-21T18:02:27.676Z,2.37
2017-07-21T18:04:56.025Z,2.30
2017-07-21T18:07:25.145Z,2.70
2017-07-21T18:09:53.955Z,2.93
2017-07-21T18:12:22.303Z,2.80
2017-07-21T18:14:50.658Z,3.07
2017-07-21T18:17:19.350Z,2.53
2017-07-21T18:19:47.696Z,2.80
2017-07-21T18:22:16.052Z,2.70
2017-07-21T18:24:44.830Z,2.57
2017-07-21T18:27:13.167Z,2.93
2017-07-21T18:29:41.523Z,3.10
2017-07-21T18:32:10.234Z,3.37
2017-07-21T18:34:38.570Z,3.63
2017-07-21T18:37:06.922Z,3.40
2017-07-21T18:39:35.946Z,3.20
2017-07-21T18:42:04.321Z,3.40
2017-07-21T18:44:32.675Z,3.33
2017-07-21T18:47:01.309Z,3.70
2017-07-21T18:49:29.675Z,3.43
2017-07-21T18:51:58.016Z,3.13
2017-07-21T18:54:26.659Z,3.10
2017-07-21T18:56:54.993Z,3.20
2017-07-21T18:59:23.357Z,3.37
2017-07-21T19:01:52.388Z,2.73
2017-07-21T19:04:20.733Z,2.80
2017-07-21T19:06:49.083Z,2.87
2017-07-21T19:09:17.752Z,2.80
2017-07-21T19:11:46.123Z,3.40
2017-07-21T19:14:14.453Z,4.03
2017-07-21T19:16:43.156Z,3.87
2017-07-21T19:19:11.528Z,4.10
2017-07-21T19:21:39.907Z,3.53
2017-07-21T19:24:08.845Z,9.10
2017-07-21T19:26:37.201Z,7.63
2017-07-21T19:29:05.559Z,8.00
2017-07-21T19:31:34.429Z,6.00
2017-07-21T19:34:02.758Z,5.40
2017-07-21T19:36:31.128Z,5.77
2017-07-21T19:38:59.869Z,5.33
2017-07-21T19:41:28.191Z,3.40
2017-07-21T19:43:56.564Z,4.03
2017-07-21T19:46:25.560Z,4.17
2017-07-21T19:48:53.898Z,5.00
2017-07-21T19:51:22.287Z,5.47
2017-07-21T19:53:51.185Z,5.17
2017-07-21T19:56:19.519Z,4.50
2017-07-21T19:58:47.882Z,5.93
2017-07-21T20:01:16.503Z,4.53
2017-07-21T20:03:44.869Z,5.83
2017-07-21T20:06:13.240Z,5.80
2017-07-21T20:08:42.127Z,5.03
2017-07-21T20:11:10.485Z,6.20
2017-07-21T20:13:38.849Z,5.67
2017-07-21T20:16:07.490Z,5.30
2017-07-21T20:18:35.872Z,4.33
2017-07-21T20:21:04.214Z,5.20
2017-07-21T20:23:33.181Z,4.40
2017-07-21T20:26:01.527Z,5.00
2017-07-21T20:28:29.905Z,5.03
2017-07-21T20:30:58.658Z,5.13
2017-07-21T20:33:27.003Z,4.90
2017-07-21T20:35:55.359Z,5.63
2017-07-21T20:38:24.036Z,5.03
2017-07-21T20:40:52.418Z,4.93
2017-07-21T20:43:20.753Z,5.53
2017-07-21T20:45:49.504Z,4.73
2017-07-21T20:48:17.865Z,4.67
2017-07-21T20:50:46.228Z,6.20
2017-07-21T20:53:14.954Z,5.37
2017-07-21T20:55:43.309Z,4.37
2017-07-21T20:58:11.659Z,4.40
2017-07-21T21:00:40.386Z,4.27
2017-07-21T21:03:08.768Z,4.43
2017-07-21T21:05:37.870Z,4.70
2017-07-21T21:08:07.299Z,4.23
2017-07-21T21:10:35.639Z,5.20
2017-07-21T21:13:04.749Z,4.17
2017-07-21T21:15:33.863Z,4.00
2017-07-21T21:18:02.208Z,4.33
2017-07-21T21:20:30.577Z,3.90
2017-07-21T21:22:59.441Z,4.17
2017-07-21T21:25:27.794Z,4.30
2017-07-21T21:27:56.157Z,3.60
2017-07-21T21:30:24.777Z,4.20
2017-07-21T21:32:53.164Z,4.13
2017-07-21T21:35:21.510Z,3.60
2017-07-21T21:37:50.303Z,4.03
2017-07-21T21:40:18.658Z,3.90
2017-07-21T21:42:47.762Z,3.47
2017-07-21T21:45:16.524Z,3.60
2017-07-21T21:47:44.904Z,4.03
2017-07-21T21:50:14.064Z,4.10
2017-07-21T21:52:42.837Z,3.97
2017-07-21T21:55:11.265Z,3.20
2017-07-21T21:57:39.643Z,3.70
2017-07-21T22:00:08.478Z,4.10
2017-07-21T22:02:36.837Z,4.30
2017-07-21T22:05:06.003Z,3.90
2017-07-21T22:07:34.693Z,3.53
2017-07-21T22:10:03.074Z,3.67
2017-07-21T22:12:31.428Z,3.87
2017-07-21T22:15:00.208Z,3.73
2017-07-21T22:17:28.559Z,4.10
2017-07-21T22:19:56.924Z,3.40
2017-07-21T22:22:26.032Z,3.87
2017-07-21T22:24:54.371Z,3.80
2017-07-21T22:27:22.739Z,4.10
2017-07-21T22:29:51.688Z,3.67
2017-07-21T22:32:20.046Z,3.57
2017-07-21T22:34:49.165Z,4.10
2017-07-21T22:37:17.946Z,3.80
2017-07-21T22:39:46.273Z,3.80
2017-07-21T22:42:14.643Z,3.47
2017-07-21T22:44:43.456Z,3.90
2017-07-21T22:47:11.852Z,3.90
2017-07-21T22:49:40.225Z,3.60
2017-07-21T22:52:09.052Z,4.27
2017-07-21T22:54:37.426Z,4.97
2017-07-21T22:57:05.790Z,4.00
2017-07-21T22:59:34.437Z,4.00
2017-07-21T23:02:02.788Z,4.13
2017-07-21T23:04:31.150Z,3.67
2017-07-21T23:07:00.138Z,4.03
2017-07-21T23:09:28.481Z,4.43
2017-07-21T23:11:56.855Z,4.17
2017-07-21T23:14:25.528Z,5.13
2017-07-21T23:16:53.871Z,4.07
2017-07-21T23:19:22.239Z,4.10
2017-07-21T23:21:51.026Z,3.30
2017-07-21T23:24:19.396Z,3.70
2017-07-21T23:26:48.519Z,4.27
2017-07-21T23:29:17.291Z,4.03
2017-07-21T23:31:45.621Z,4.33
2017-07-21T23:34:13.988Z,3.77
2017-07-21T23:36:42.684Z,4.13
2017-07-21T23:39:11.032Z,4.80
2017-07-21T23:41:39.425Z,4.60
2017-07-21T23:44:08.165Z,4.20
2017-07-21T23:46:36.540Z,4.60
2017-07-21T23:49:04.884Z,3.90
2017-07-21T23:51:34.043Z,4.00
2017-07-21T23:54:02.402Z,4.37
2017-07-21T23:56:31.529Z,3.90
2017-07-21T23:59:00.282Z,4.43
